Time;durP1;ratioP1;P1;durP2;ratioP2;P2;SDS_P1;SDS_P2;PMS_P1;PMS_P2;Temp;Humidity;BMP_temperature;BMP_pressure;BME280_temperature;BME280_humidity;BME280_pressure;Samples;Min_cycle;Max_cycle;Signal;HPM_P1;HPM_P2
2022/08/08 00:01:41;;;;;;;3.33;1.20;;;;;;;;;;4995588;28;20064;-78
2022/08/08 00:04:40;;;;;;;2.65;1.25;;;;;;;;;;4995859;28;20058;-78
2022/08/08 00:07:20;;;;;;;3.63;1.33;;;;;;;;;;4995801;28;20042;-78
2022/08/08 00:09:50;;;;;;;3.10;1.33;;;;;;;;;;4994535;28;20556;-77
2022/08/08 00:12:20;;;;;;;3.97;1.40;;;;;;;;;;4994614;28;20058;-78
2022/08/08 00:14:49;;;;;;;2.85;1.90;;;;;;;;;;4996898;28;20571;-79
2022/08/08 00:17:32;;;;;;;3.40;1.38;;;;;;;;;;4994972;28;20084;-79
2022/08/08 00:20:40;;;;;;;3.90;1.50;;;;;;;;;;4994215;28;20054;-79
2022/08/08 00:23:09;;;;;;;2.15;1.33;;;;;;;;;;4993408;28;20069;-79
2022/08/08 00:25:40;;;;;;;2.50;1.50;;;;;;;;;;4994124;28;20051;-78
2022/08/08 00:28:20;;;;;;;6.03;1.50;;;;;;;;;;4992634;28;20492;-79
2022/08/08 00:31:06;;;;;;;4.00;1.60;;;;;;;;;;4993260;28;20494;-80
2022/08/08 00:36:59;;;;;;;4.03;1.52;;;;;;;;;;4974005;28;20616;-79
2022/08/08 00:39:40;;;;;;;4.70;1.70;;;;;;;;;;4973898;28;20721;-79
2022/08/08 00:42:47;;;;;;;3.33;1.42;;;;;;;;;;4972883;28;20061;-77
2022/08/08 00:45:14;;;;;;;2.55;1.48;;;;;;;;;;4974886;28;20213;-79
2022/08/08 00:48:09;;;;;;;3.30;1.55;;;;;;;;;;4974576;28;20109;-79
2022/08/08 00:51:10;;;;;;;3.58;1.33;;;;;;;;;;4973330;28;20050;-79
2022/08/08 00:53:43;;;;;;;4.25;1.60;;;;;;;;;;4973385;28;20338;-78
2022/08/08 00:56:25;;;;;;;5.15;1.70;;;;;;;;;;4974129;28;20082;-79
2022/08/08 00:59:14;;;;;;;3.35;1.58;;;;;;;;;;4978416;28;20121;-79
2022/08/08 01:02:02;;;;;;;4.28;1.60;;;;;;;;;;4979498;28;20141;-79
2022/08/08 01:04:49;;;;;;;3.83;1.58;;;;;;;;;;4978261;28;20185;-78
2022/08/08 01:07:33;;;;;;;4.07;1.50;;;;;;;;;;4984083;28;20078;-78
2022/08/08 01:10:26;;;;;;;4.43;1.70;;;;;;;;;;4995844;28;20205;-80
2022/08/08 01:12:55;;;;;;;2.80;1.70;;;;;;;;;;5000738;28;20043;-79
2022/08/08 01:15:41;;;;;;;4.05;1.60;;;;;;;;;;4997363;28;20046;-79
2022/08/08 01:18:15;;;;;;;2.72;1.77;;;;;;;;;;4981132;28;20073;-80
2022/08/08 01:21:03;;;;;;;5.25;1.65;;;;;;;;;;4980248;28;20061;-78
2022/08/08 01:23:49;;;;;;;3.72;1.63;;;;;;;;;;4978644;28;20054;-79
2022/08/08 01:26:51;;;;;;;4.47;1.65;;;;;;;;;;4979768;28;20455;-77
2022/08/08 01:29:17;;;;;;;7.18;2.08;;;;;;;;;;4982882;28;20047;-80
2022/08/08 01:31:52;;;;;;;4.70;1.80;;;;;;;;;;4996671;28;20053;-81
2022/08/08 01:34:54;;;;;;;1.98;1.42;;;;;;;;;;4983433;28;20106;-81
2022/08/08 01:37:31;;;;;;;2.72;1.67;;;;;;;;;;4957238;28;20118;-78
2022/08/08 01:40:28;;;;;;;2.67;1.58;;;;;;;;;;4976008;28;20608;-79
2022/08/08 01:43:10;;;;;;;4.40;1.80;;;;;;;;;;4977660;28;20117;-79
2022/08/08 01:45:59;;;;;;;2.42;1.60;;;;;;;;;;4981298;28;20061;-79
2022/08/08 01:48:46;;;;;;;4.60;1.60;;;;;;;;;;4984370;28;20046;-80
2022/08/08 01:51:30;;;;;;;2.88;1.75;;;;;;;;;;4982271;28;20046;-77
2022/08/08 01:54:16;;;;;;;2.25;1.58;;;;;;;;;;4983264;28;20050;-79
2022/08/08 01:57:06;;;;;;;4.03;1.73;;;;;;;;;;4987277;28;20121;-78
2022/08/08 01:59:42;;;;;;;4.22;1.70;;;;;;;;;;4984384;28;20054;-78
2022/08/08 02:02:37;;;;;;;4.45;1.63;;;;;;;;;;4961847;28;20046;-79
2022/08/08 02:05:22;;;;;;;3.35;1.60;;;;;;;;;;4978921;28;20073;-78
2022/08/08 02:07:49;;;;;;;3.97;1.75;;;;;;;;;;4959601;28;20055;-80
2022/08/08 02:10:33;;;;;;;5.72;1.80;;;;;;;;;;4974508;28;20105;-78
2022/08/08 02:13:16;;;;;;;3.55;1.88;;;;;;;;;;4975930;28;20074;-78
2022/08/08 02:16:09;;;;;;;4.15;1.85;;;;;;;;;;4964197;28;20054;-78
2022/08/08 02:18:49;;;;;;;3.25;1.73;;;;;;;;;;4979417;28;20062;-77
2022/08/08 02:24:22;;;;;;;4.97;1.85;;;;;;;;;;4975466;28;20626;-78
2022/08/08 02:27:09;;;;;;;2.58;1.75;;;;;;;;;;4977816;28;20142;-79
2022/08/08 02:29:42;;;;;;;2.90;1.90;;;;;;;;;;4977335;28;20499;-79
2022/08/08 02:32:18;;;;;;;3.78;1.80;;;;;;;;;;4988860;28;20082;-79
2022/08/08 02:34:51;;;;;;;4.97;1.77;;;;;;;;;;5008133;28;20063;-81
2022/08/08 02:37:56;;;;;;;4.07;1.98;;;;;;;;;;5003547;28;20050;-79
2022/08/08 02:40:35;;;;;;;4.80;1.98;;;;;;;;;;4977512;28;20057;-78
2022/08/08 02:43:19;;;;;;;4.88;2.03;;;;;;;;;;4994595;28;20078;-81
2022/08/08 02:46:08;;;;;;;3.00;1.80;;;;;;;;;;4996224;28;20391;-78
2022/08/08 02:48:53;;;;;;;3.05;1.88;;;;;;;;;;4976507;28;20130;-80
2022/08/08 02:51:34;;;;;;;2.45;1.90;;;;;;;;;;4996121;28;20068;-80
2022/08/08 02:54:27;;;;;;;3.60;1.73;;;;;;;;;;5003910;28;20054;-80
2022/08/08 02:56:59;;;;;;;5.00;2.03;;;;;;;;;;5003775;28;20086;-79
2022/08/08 02:59:42;;;;;;;6.25;2.45;;;;;;;;;;5002752;28;20129;-80
2022/08/08 03:02:46;;;;;;;7.40;2.05;;;;;;;;;;5001402;28;20093;-79
2022/08/08 03:05:32;;;;;;;3.88;1.80;;;;;;;;;;4983864;28;20089;-79
2022/08/08 03:08:11;;;;;;;5.75;2.08;;;;;;;;;;5003047;28;20558;-80
2022/08/08 03:10:56;;;;;;;5.80;1.83;;;;;;;;;;5003043;28;20050;-79
2022/08/08 03:13:24;;;;;;;;;;;;;;;;;;5010303;28;20046;-81
2022/08/08 03:16:22;;;;;;;4.88;1.83;;;;;;;;;;5018839;28;19925;-79
2022/08/08 03:19:14;;;;;;;3.15;1.80;;;;;;;;;;4993258;28;20464;-81
2022/08/08 03:21:45;;;;;;;5.65;2.25;;;;;;;;;;4995476;28;20698;-79
2022/08/08 03:24:25;;;;;;;3.75;2.10;;;;;;;;;;4997098;28;20098;-81
2022/08/08 03:27:08;;;;;;;4.22;2.20;;;;;;;;;;4999649;28;20058;-81
2022/08/08 03:29:39;;;;;;;3.95;2.30;;;;;;;;;;4997533;28;20080;-78
2022/08/08 03:35:12;;;;;;;5.15;2.25;;;;;;;;;;4997593;28;20054;-77
2022/08/08 03:37:41;;;;;;;4.50;2.30;;;;;;;;;;4977712;28;20537;-78
2022/08/08 03:40:27;;;;;;;3.25;1.83;;;;;;;;;;5002695;28;20050;-79
2022/08/08 03:42:57;;;;;;;3.95;2.30;;;;;;;;;;5003749;28;20058;-80
2022/08/08 03:45:43;;;;;;;7.18;2.40;;;;;;;;;;4999340;28;20110;-79
2022/08/08 03:48:30;;;;;;;4.20;2.30;;;;;;;;;;4996927;28;20141;-79
2022/08/08 03:51:16;;;;;;;5.07;2.40;;;;;;;;;;4996692;28;20051;-80
2022/08/08 03:53:52;;;;;;;4.55;2.33;;;;;;;;;;4995038;28;20074;-80
2022/08/08 03:56:21;;;;;;;3.83;2.17;;;;;;;;;;4994236;28;20137;-78
2022/08/08 03:58:57;;;;;;;4.25;2.30;;;;;;;;;;4995215;28;20050;-79
2022/08/08 04:01:32;;;;;;;3.83;2.53;;;;;;;;;;4977862;28;20057;-78
2022/08/08 04:04:19;;;;;;;4.40;2.47;;;;;;;;;;4991480;28;20133;-78
2022/08/08 04:06:59;;;;;;;4.95;2.20;;;;;;;;;;4992573;28;20050;-80
2022/08/08 04:09:27;;;;;;;4.97;2.55;;;;;;;;;;4993493;28;20052;-79
2022/08/08 04:12:14;;;;;;;3.60;2.10;;;;;;;;;;4991812;28;20057;-79
2022/08/08 04:14:47;;;;;;;4.55;2.50;;;;;;;;;;4992641;28;20173;-79
2022/08/08 04:17:16;;;;;;;3.35;2.30;;;;;;;;;;4994691;28;20050;-81
2022/08/08 04:20:03;;;;;;;4.82;2.15;;;;;;;;;;4976400;28;20507;-78
2022/08/08 04:22:30;;;;;;;9.27;2.55;;;;;;;;;;4973146;28;20081;-79
2022/08/08 04:24:58;;;;;;;5.22;2.33;;;;;;;;;;4992771;28;20046;-79
2022/08/08 04:27:28;;;;;;;4.35;2.38;;;;;;;;;;4995069;28;20052;-79
2022/08/08 04:30:14;;;;;;;6.65;2.42;;;;;;;;;;4993159;28;20556;-76
2022/08/08 04:32:44;;;;;;;7.40;2.65;;;;;;;;;;4982614;28;20042;-74
2022/08/08 04:35:15;;;;;;;6.65;2.53;;;;;;;;;;4989510;28;20058;-77
2022/08/08 04:37:42;;;;;;;4.28;2.28;;;;;;;;;;4973546;28;20054;-75
2022/08/08 04:40:10;;;;;;;6.95;2.65;;;;;;;;;;5009893;28;20074;-78
2022/08/08 04:42:38;;;;;;;4.88;2.13;;;;;;;;;;5013734;28;20448;-78
2022/08/08 04:45:21;;;;;;;7.43;2.47;;;;;;;;;;5002909;28;20141;-76
2022/08/08 04:47:48;;;;;;;6.88;2.22;;;;;;;;;;4989446;28;20082;-77
2022/08/08 04:50:15;;;;;;;4.53;2.53;;;;;;;;;;4988789;28;20065;-77
2022/08/08 04:52:53;;;;;;;9.35;2.42;;;;;;;;;;4988973;28;20515;-76
2022/08/08 04:55:30;;;;;;;4.85;2.25;;;;;;;;;;4988215;28;20492;-76
2022/08/08 04:58:16;;;;;;;6.35;2.10;;;;;;;;;;4987772;28;20050;-78
2022/08/08 05:00:43;;;;;;;7.95;2.50;;;;;;;;;;4987768;28;20054;-76
2022/08/08 05:03:12;;;;;;;4.57;2.40;;;;;;;;;;4988727;28;20057;-77
2022/08/08 05:05:59;;;;;;;7.75;2.50;;;;;;;;;;4995464;28;20051;-78
2022/08/08 05:08:37;;;;;;;7.60;3.75;;;;;;;;;;4999054;28;20050;-78
2022/08/08 05:11:04;;;;;;;5.55;3.00;;;;;;;;;;4995637;28;20061;-79
2022/08/08 05:13:33;;;;;;;11.60;2.85;;;;;;;;;;4975446;28;20091;-77
2022/08/08 05:16:00;;;;;;;4.82;2.83;;;;;;;;;;4992139;28;20096;-78
2022/08/08 05:18:46;;;;;;;7.07;2.65;;;;;;;;;;4991543;28;20346;-79
2022/08/08 05:21:14;;;;;;;9.65;2.67;;;;;;;;;;4992287;28;20050;-76
2022/08/08 05:23:44;;;;;;;12.10;2.40;;;;;;;;;;4984656;28;20050;-79
2022/08/08 05:26:14;;;;;;;5.97;2.40;;;;;;;;;;4993766;28;20573;-78
2022/08/08 05:28:45;;;;;;;5.20;2.28;;;;;;;;;;5004124;28;20101;-78
2022/08/08 05:31:22;;;;;;;4.30;2.20;;;;;;;;;;4986658;28;20046;-78
2022/08/08 05:34:27;;;;;;;6.07;2.15;;;;;;;;;;4983177;28;20054;-78
2022/08/08 05:36:54;;;;;;;5.90;1.92;;;;;;;;;;5005519;28;20148;-80
2022/08/08 05:39:22;;;;;;;5.57;2.17;;;;;;;;;;5007654;28;20169;-78
2022/08/08 05:41:54;;;;;;;5.53;1.92;;;;;;;;;;4987289;28;20050;-79
2022/08/08 05:44:28;;;;;;;6.05;2.10;;;;;;;;;;5009483;28;20196;-78
2022/08/08 05:46:57;;;;;;;6.38;1.85;;;;;;;;;;5010363;28;20491;-79
2022/08/08 05:49:28;;;;;;;8.13;2.20;;;;;;;;;;4998097;28;20051;-80
2022/08/08 05:51:58;;;;;;;4.32;2.05;;;;;;;;;;4997906;28;20046;-81
2022/08/08 05:54:25;;;;;;;7.82;1.92;;;;;;;;;;4995331;28;20103;-80
2022/08/08 05:57:15;;;;;;;4.10;1.73;;;;;;;;;;4994660;28;20072;-80
2022/08/08 06:00:06;;;;;;;7.25;1.80;;;;;;;;;;4997135;28;20060;-80
2022/08/08 06:03:09;;;;;;;8.38;2.10;;;;;;;;;;5003313;28;20046;-79
2022/08/08 06:05:46;;;;;;;5.80;1.85;;;;;;;;;;5002921;28;20056;-78
2022/08/08 06:08:21;;;;;;;5.93;2.28;;;;;;;;;;5003368;28;20054;-79
2022/08/08 06:10:59;;;;;;;9.38;2.03;;;;;;;;;;5003969;28;20061;-77
2022/08/08 06:13:27;;;;;;;3.03;1.50;;;;;;;;;;5003293;28;20050;-79
2022/08/08 06:16:01;;;;;;;4.05;1.60;;;;;;;;;;4987620;28;20054;-80
2022/08/08 06:18:28;;;;;;;7.57;1.80;;;;;;;;;;5004164;28;20070;-80
2022/08/08 06:20:57;;;;;;;5.10;1.65;;;;;;;;;;5001995;28;20496;-79
2022/08/08 06:23:24;;;;;;;5.43;1.77;;;;;;;;;;4985874;28;20474;-79
2022/08/08 06:26:12;;;;;;;8.23;1.77;;;;;;;;;;5008645;28;20575;-77
2022/08/08 06:29:04;;;;;;;8.57;1.85;;;;;;;;;;4993525;28;20055;-79
2022/08/08 06:31:55;;;;;;;5.07;1.80;;;;;;;;;;4996318;28;20043;-79
2022/08/08 06:34:45;;;;;;;8.85;2.10;;;;;;;;;;4988695;28;20070;-78
2022/08/08 06:37:32;;;;;;;7.57;1.33;;;;;;;;;;4995808;28;20362;-78
2022/08/08 06:40:04;;;;;;;5.15;1.48;;;;;;;;;;4993403;28;20050;-79
2022/08/08 06:42:34;;;;;;;6.90;1.52;;;;;;;;;;4993626;28;20054;-79
2022/08/08 06:45:03;;;;;;;5.18;1.40;;;;;;;;;;4997595;28;20145;-79
2022/08/08 06:47:31;;;;;;;8.68;1.30;;;;;;;;;;4994296;28;20046;-78
2022/08/08 06:50:17;;;;;;;5.15;1.67;;;;;;;;;;4993006;28;20566;-79
2022/08/08 06:53:02;;;;;;;2.67;1.20;;;;;;;;;;4993455;28;20053;-79
2022/08/08 06:55:43;;;;;;;2.70;1.27;;;;;;;;;;4996478;28;20054;-79
2022/08/08 06:58:12;;;;;;;4.45;1.40;;;;;;;;;;4998604;28;20142;-78
2022/08/08 07:00:44;;;;;;;2.78;1.30;;;;;;;;;;4982343;28;20050;-79
2022/08/08 07:03:20;;;;;;;3.78;1.40;;;;;;;;;;4994881;28;20085;-79
2022/08/08 07:06:08;;;;;;;7.15;1.30;;;;;;;;;;4991840;28;20048;-76
2022/08/08 07:08:38;;;;;;;2.45;1.02;;;;;;;;;;4992539;28;20050;-79
2022/08/08 07:11:08;;;;;;;6.10;1.48;;;;;;;;;;4996465;28;20104;-79
2022/08/08 07:13:51;;;;;;;6.30;1.30;;;;;;;;;;5003050;28;20058;-80
2022/08/08 07:16:35;;;;;;;2.58;1.20;;;;;;;;;;4998624;28;20058;-80
2022/08/08 07:19:33;;;;;;;4.55;1.35;;;;;;;;;;4989476;28;20481;-79
2022/08/08 07:22:05;;;;;;;2.00;1.10;;;;;;;;;;5012313;28;20073;-79
2022/08/08 07:24:44;;;;;;;3.38;1.23;;;;;;;;;;4987522;28;20215;-79
2022/08/08 07:27:13;;;;;;;4.38;1.15;;;;;;;;;;4997398;28;20053;-79
2022/08/08 07:29:43;;;;;;;6.20;1.40;;;;;;;;;;4997295;28;20085;-78
2022/08/08 07:32:28;;;;;;;4.60;1.20;;;;;;;;;;4976513;28;20153;-78
2022/08/08 07:34:56;;;;;;;5.03;1.50;;;;;;;;;;4974687;28;20128;-79
2022/08/08 07:37:29;;;;;;;2.50;1.20;;;;;;;;;;4975783;28;20086;-79
2022/08/08 07:40:16;;;;;;;2.90;1.05;;;;;;;;;;4978513;28;20057;-79
2022/08/08 07:42:54;;;;;;;3.15;1.15;;;;;;;;;;4981350;28;20061;-79
2022/08/08 07:45:21;;;;;;;7.00;1.40;;;;;;;;;;4977233;28;20416;-78
2022/08/08 07:47:53;;;;;;;6.85;1.42;;;;;;;;;;4980380;28;20046;-79
2022/08/08 07:50:20;;;;;;;6.25;1.20;;;;;;;;;;4993164;28;20149;-78
2022/08/08 07:52:56;;;;;;;9.32;1.30;;;;;;;;;;4993930;28;20042;-78
2022/08/08 07:55:25;;;;;;;3.85;1.10;;;;;;;;;;4964233;28;20306;-79
2022/08/08 07:58:03;;;;;;;5.57;1.30;;;;;;;;;;5001833;28;20145;-80
2022/08/08 08:00:38;;;;;;;7.68;1.40;;;;;;;;;;5000707;28;20182;-77
2022/08/08 08:03:09;;;;;;;2.70;1.25;;;;;;;;;;4994980;28;20499;-78
2022/08/08 08:05:52;;;;;;;3.38;1.35;;;;;;;;;;4996832;28;20043;-79
2022/08/08 08:08:23;;;;;;;2.75;1.15;;;;;;;;;;4998305;28;20263;-80
2022/08/08 08:10:50;;;;;;;3.97;1.40;;;;;;;;;;5013541;28;20073;-80
2022/08/08 08:13:20;;;;;;;2.90;1.40;;;;;;;;;;5014636;28;20074;-79
2022/08/08 08:16:00;;;;;;;4.25;1.30;;;;;;;;;;5002692;28;20046;-78
2022/08/08 08:18:47;;;;;;;4.00;1.30;;;;;;;;;;4996913;28;20130;-78
2022/08/08 08:21:23;;;;;;;2.60;1.52;;;;;;;;;;4995274;28;20080;-77
2022/08/08 08:24:10;;;;;;;4.13;1.42;;;;;;;;;;4996740;28;20495;-78
2022/08/08 08:26:37;;;;;;;1.75;1.20;;;;;;;;;;4998658;28;20081;-79
2022/08/08 08:29:12;;;;;;;4.07;1.55;;;;;;;;;;4993152;28;20055;-80
2022/08/08 08:31:41;;;;;;;5.90;1.30;;;;;;;;;;4994306;28;20046;-79
2022/08/08 08:34:08;;;;;;;5.15;1.58;;;;;;;;;;4977409;28;20114;-80
2022/08/08 08:36:35;;;;;;;4.65;1.55;;;;;;;;;;4998133;28;20105;-79
2022/08/08 08:39:02;;;;;;;6.03;1.83;;;;;;;;;;4996589;28;20110;-79
2022/08/08 08:41:33;;;;;;;2.92;1.50;;;;;;;;;;4994346;28;20062;-79
2022/08/08 08:44:01;;;;;;;2.95;1.50;;;;;;;;;;4996261;28;20061;-79
2022/08/08 08:46:40;;;;;;;8.57;1.60;;;;;;;;;;4993403;28;20042;-78
2022/08/08 08:49:16;;;;;;;;;;;;;;;;;;4990200;28;20050;-79
2022/08/08 08:51:43;;;;;;;4.60;1.38;;;;;;;;;;4991147;28;19921;-78
2022/08/08 08:54:19;;;;;;;6.00;1.70;;;;;;;;;;4986664;28;20134;-78
2022/08/08 08:56:51;;;;;;;3.50;1.60;;;;;;;;;;4999197;28;20339;-79
2022/08/08 08:59:17;;;;;;;3.97;1.50;;;;;;;;;;4997890;28;20407;-80
2022/08/08 09:02:05;;;;;;;3.55;1.38;;;;;;;;;;4996035;28;20434;-78
2022/08/08 09:04:34;;;;;;;3.00;1.38;;;;;;;;;;4997621;28;20558;-79
2022/08/08 09:07:11;;;;;;;4.35;1.48;;;;;;;;;;4992501;28;20092;-79
2022/08/08 09:09:39;;;;;;;3.92;1.58;;;;;;;;;;4997302;28;20050;-80
2022/08/08 09:12:21;;;;;;;2.33;1.42;;;;;;;;;;4981520;28;20419;-80
2022/08/08 09:14:48;;;;;;;4.20;1.50;;;;;;;;;;4997024;28;20074;-80
2022/08/08 09:17:17;;;;;;;2.80;1.40;;;;;;;;;;4998569;28;20054;-79
2022/08/08 09:19:50;;;;;;;3.92;1.50;;;;;;;;;;5001309;28;20046;-77
2022/08/08 09:22:36;;;;;;;3.25;1.50;;;;;;;;;;5000934;28;20114;-78
2022/08/08 09:25:05;;;;;;;3.03;1.30;;;;;;;;;;5003594;28;20042;-78
2022/08/08 09:27:35;;;;;;;7.50;1.48;;;;;;;;;;5009168;28;20057;-79
2022/08/08 09:30:26;;;;;;;6.43;1.30;;;;;;;;;;5005360;28;20166;-77
2022/08/08 09:32:54;;;;;;;4.20;1.50;;;;;;;;;;5000234;28;20069;-79
2022/08/08 09:35:44;;;;;;;2.45;1.30;;;;;;;;;;4987282;28;20082;-79
2022/08/08 09:38:30;;;;;;;6.63;1.60;;;;;;;;;;4978508;28;20054;-78
2022/08/08 09:40:59;;;;;;;2.08;1.13;;;;;;;;;;4998426;28;20054;-79
2022/08/08 09:43:29;;;;;;;2.28;1.30;;;;;;;;;;5005006;28;20127;-79
2022/08/08 09:46:15;;;;;;;4.45;1.30;;;;;;;;;;5003654;28;20046;-79
2022/08/08 09:48:56;;;;;;;4.07;1.42;;;;;;;;;;5002131;28;20058;-79
2022/08/08 09:51:46;;;;;;;6.63;1.50;;;;;;;;;;4997817;28;20057;-78
2022/08/08 09:54:42;;;;;;;5.30;1.80;;;;;;;;;;4994098;28;20046;-78
2022/08/08 09:57:10;;;;;;;4.40;1.50;;;;;;;;;;4994134;28;20050;-76
2022/08/08 09:59:42;;;;;;;5.43;1.60;;;;;;;;;;4993990;28;20469;-79
2022/08/08 10:02:35;;;;;;;3.00;1.67;;;;;;;;;;4993644;28;20052;-81
2022/08/08 10:05:09;;;;;;;1.85;1.08;;;;;;;;;;4994212;28;20113;-80
2022/08/08 10:07:52;;;;;;;5.85;1.50;;;;;;;;;;4994182;28;20814;-79
2022/08/08 10:10:26;;;;;;;;;;;;;;;;;;4972567;28;20074;-79
2022/08/08 10:12:56;;;;;;;4.70;1.48;;;;;;;;;;4988713;28;19922;-79
2022/08/08 10:15:31;;;;;;;;;;;;;;;;;;4982524;28;20057;-78
2022/08/08 10:17:57;;;;;;;2.90;1.58;;;;;;;;;;5001406;28;19929;-80
2022/08/08 10:20:40;;;;;;;4.80;1.35;;;;;;;;;;4998609;28;20054;-80
2022/08/08 10:23:36;;;;;;;5.88;1.40;;;;;;;;;;4992328;28;20058;-79
2022/08/08 10:26:24;;;;;;;1.73;1.30;;;;;;;;;;5002757;28;20054;-79
2022/08/08 10:29:09;;;;;;;8.07;1.45;;;;;;;;;;4989234;28;20096;-79
2022/08/08 10:34:24;;;;;;;2.78;1.40;;;;;;;;;;5010015;28;20054;-78
2022/08/08 10:36:55;;;;;;;4.30;1.40;;;;;;;;;;5014606;28;20531;-80
2022/08/08 10:39:26;;;;;;;3.85;1.33;;;;;;;;;;4988654;28;20055;-80
2022/08/08 10:42:09;;;;;;;2.40;1.70;;;;;;;;;;4990702;28;20429;-80
2022/08/08 10:44:42;;;;;;;6.28;1.60;;;;;;;;;;4996976;28;20470;-80
2022/08/08 10:47:11;;;;;;;6.25;1.40;;;;;;;;;;4991152;28;20054;-80
2022/08/08 10:49:42;;;;;;;3.00;1.50;;;;;;;;;;4996522;28;20133;-80
2022/08/08 10:52:31;;;;;;;3.05;1.30;;;;;;;;;;4999376;28;20141;-81
2022/08/08 10:54:58;;;;;;;3.97;1.42;;;;;;;;;;4999143;28;20064;-82
2022/08/08 10:57:35;;;;;;;2.42;1.52;;;;;;;;;;5003798;28;20069;-80
2022/08/08 11:00:25;;;;;;;3.38;1.50;;;;;;;;;;5017568;28;20439;-81
2022/08/08 11:02:53;;;;;;;2.80;1.40;;;;;;;;;;5004581;28;20046;-80
2022/08/08 11:05:19;;;;;;;2.80;1.70;;;;;;;;;;5004430;28;20050;-80
2022/08/08 11:07:48;;;;;;;7.70;1.70;;;;;;;;;;4999127;28;20050;-80
2022/08/08 11:10:35;;;;;;;4.57;1.60;;;;;;;;;;5004344;28;20049;-79
2022/08/08 11:13:01;;;;;;;2.42;1.65;;;;;;;;;;5001298;28;20057;-80
2022/08/08 11:15:48;;;;;;;4.30;1.40;;;;;;;;;;4997752;28;20498;-81
2022/08/08 11:18:26;;;;;;;4.45;1.50;;;;;;;;;;4993384;28;20050;-78
2022/08/08 11:20:55;;;;;;;5.78;1.60;;;;;;;;;;4994844;28;20062;-79
2022/08/08 11:23:24;;;;;;;7.50;1.80;;;;;;;;;;4997288;28;20062;-81
2022/08/08 11:25:57;;;;;;;6.20;1.60;;;;;;;;;;5000559;28;20060;-79
2022/08/08 11:28:25;;;;;;;2.35;1.52;;;;;;;;;;5000052;28;20046;-79
2022/08/08 11:30:57;;;;;;;2.22;1.50;;;;;;;;;;4994282;28;20082;-80
2022/08/08 11:33:25;;;;;;;5.15;1.60;;;;;;;;;;4981015;28;20047;-78
2022/08/08 11:36:13;;;;;;;2.88;1.70;;;;;;;;;;4989764;28;20066;-81
2022/08/08 11:38:44;;;;;;;4.82;1.70;;;;;;;;;;4995583;28;20031;-81
2022/08/08 11:41:21;;;;;;;1.90;1.38;;;;;;;;;;4991863;28;20074;-80
2022/08/08 11:43:48;;;;;;;2.60;1.42;;;;;;;;;;4976855;28;20114;-79
2022/08/08 11:46:14;;;;;;;5.63;1.60;;;;;;;;;;4990251;28;20057;-80
2022/08/08 11:48:45;;;;;;;3.92;1.50;;;;;;;;;;5005123;28;20053;-80
2022/08/08 11:51:14;;;;;;;3.88;1.50;;;;;;;;;;4995541;28;20110;-79
2022/08/08 11:54:01;;;;;;;5.82;1.50;;;;;;;;;;4998883;28;20053;-80
2022/08/08 11:56:33;;;;;;;4.63;1.80;;;;;;;;;;4984886;28;20054;-79
2022/08/08 11:59:07;;;;;;;2.45;1.30;;;;;;;;;;4981297;28;20117;-80
2022/08/08 12:01:35;;;;;;;5.93;1.50;;;;;;;;;;4983854;28;20058;-80
2022/08/08 12:04:02;;;;;;;2.55;1.42;;;;;;;;;;5023754;28;20107;-81
2022/08/08 12:06:31;;;;;;;7.25;1.67;;;;;;;;;;5019635;28;20148;-81
2022/08/08 12:09:05;;;;;;;7.30;1.60;;;;;;;;;;5000405;28;20054;-80
2022/08/08 12:11:36;;;;;;;2.90;1.60;;;;;;;;;;5015931;28;20073;-79
2022/08/08 12:14:03;;;;;;;3.97;1.65;;;;;;;;;;4999736;28;20069;-80
2022/08/08 12:16:30;;;;;;;5.80;1.38;;;;;;;;;;4999566;28;20048;-79
2022/08/08 12:19:11;;;;;;;6.90;1.70;;;;;;;;;;4995503;28;20061;-79
2022/08/08 12:21:38;;;;;;;4.40;1.45;;;;;;;;;;4996776;28;20510;-80
2022/08/08 12:24:24;;;;;;;7.65;1.70;;;;;;;;;;4986037;28;20060;-80
2022/08/08 12:26:55;;;;;;;3.95;1.65;;;;;;;;;;5003314;28;20118;-80
2022/08/08 12:29:27;;;;;;;5.30;1.42;;;;;;;;;;5000848;28;20081;-80
2022/08/08 12:32:10;;;;;;;4.38;1.48;;;;;;;;;;5000795;28;20046;-79
2022/08/08 12:34:45;;;;;;;7.10;1.55;;;;;;;;;;5000946;28;20050;-79
2022/08/08 12:37:21;;;;;;;4.68;1.27;;;;;;;;;;5007841;28;20054;-80
2022/08/08 12:39:51;;;;;;;3.80;1.80;;;;;;;;;;5006437;28;20054;-78
2022/08/08 12:42:29;;;;;;;6.28;1.10;;;;;;;;;;4984586;28;20137;-77
2022/08/08 12:45:03;;;;;;;9.05;1.63;;;;;;;;;;5005155;28;20057;-79
2022/08/08 12:47:57;;;;;;;3.53;1.30;;;;;;;;;;5003401;28;20078;-79
2022/08/08 12:50:42;;;;;;;8.00;1.55;;;;;;;;;;4987534;28;20050;-79
2022/08/08 12:53:26;;;;;;;6.50;1.70;;;;;;;;;;5003676;28;20050;-79
2022/08/08 12:55:58;;;;;;;4.70;1.40;;;;;;;;;;5002534;28;20070;-79
2022/08/08 12:58:44;;;;;;;6.32;1.40;;;;;;;;;;5004510;28;20038;-79
2022/08/08 13:01:11;;;;;;;2.15;1.40;;;;;;;;;;5007445;28;20069;-78
2022/08/08 13:03:49;;;;;;;11.48;1.80;;;;;;;;;;5005345;28;20065;-79
2022/08/08 13:06:18;;;;;;;6.20;1.63;;;;;;;;;;5004759;28;20046;-79
2022/08/08 13:08:49;;;;;;;3.90;1.70;;;;;;;;;;5006291;28;20350;-81
2022/08/08 13:11:25;;;;;;;6.05;1.50;;;;;;;;;;5003857;28;20042;-79
2022/08/08 13:14:14;;;;;;;5.47;1.50;;;;;;;;;;5001832;28;20069;-78
2022/08/08 13:16:44;;;;;;;5.07;1.35;;;;;;;;;;5003636;28;20050;-79
2022/08/08 13:19:14;;;;;;;2.05;1.38;;;;;;;;;;5004458;28;20114;-78
2022/08/08 13:21:46;;;;;;;3.38;1.40;;;;;;;;;;5003151;28;20046;-79
2022/08/08 13:24:28;;;;;;;4.65;1.58;;;;;;;;;;4998726;28;20054;-79
2022/08/08 13:27:16;;;;;;;5.97;1.60;;;;;;;;;;4999492;28;20078;-79
2022/08/08 13:29:53;;;;;;;3.30;1.63;;;;;;;;;;4985616;28;20061;-80
2022/08/08 13:32:20;;;;;;;4.00;1.70;;;;;;;;;;5001767;28;20081;-79
2022/08/08 13:34:52;;;;;;;4.65;1.45;;;;;;;;;;5002210;28;20057;-80
2022/08/08 13:37:19;;;;;;;7.50;1.52;;;;;;;;;;5009650;28;20122;-78
2022/08/08 13:40:06;;;;;;;1.58;1.40;;;;;;;;;;5004022;28;20125;-78
2022/08/08 13:42:34;;;;;;;7.18;1.70;;;;;;;;;;5003644;28;20042;-78
2022/08/08 13:45:02;;;;;;;5.82;1.50;;;;;;;;;;5008254;28;20073;-78
2022/08/08 13:47:30;;;;;;;5.53;1.70;;;;;;;;;;4999388;28;20081;-78
2022/08/08 13:49:56;;;;;;;3.30;1.65;;;;;;;;;;5000822;28;20050;-79
2022/08/08 13:52:47;;;;;;;6.53;1.70;;;;;;;;;;4996022;28;20072;-78
2022/08/08 13:55:15;;;;;;;4.03;1.52;;;;;;;;;;4999018;28;20523;-78
2022/08/08 13:57:55;;;;;;;8.30;1.40;;;;;;;;;;4999348;28;20056;-79
2022/08/08 14:00:39;;;;;;;7.13;1.77;;;;;;;;;;4999186;28;20077;-79
2022/08/08 14:03:10;;;;;;;4.60;1.48;;;;;;;;;;4994709;28;20050;-79
2022/08/08 14:06:06;;;;;;;7.05;1.60;;;;;;;;;;4991231;28;20050;-81
2022/08/08 14:08:41;;;;;;;10.15;1.95;;;;;;;;;;5009180;28;20042;-80
2022/08/08 14:11:12;;;;;;;3.53;1.60;;;;;;;;;;5008019;28;20065;-79
2022/08/08 14:13:41;;;;;;;4.38;1.40;;;;;;;;;;5011214;28;20058;-79
2022/08/08 14:16:26;;;;;;;8.30;1.50;;;;;;;;;;5009288;28;20046;-80
2022/08/08 14:18:53;;;;;;;5.93;1.50;;;;;;;;;;5005139;28;20073;-80
2022/08/08 14:21:22;;;;;;;7.85;1.70;;;;;;;;;;5005692;28;20054;-80
2022/08/08 14:23:50;;;;;;;4.22;1.60;;;;;;;;;;5006926;28;20050;-80
2022/08/08 14:26:37;;;;;;;5.40;1.50;;;;;;;;;;5001949;28;20113;-78
2022/08/08 14:29:03;;;;;;;5.45;1.50;;;;;;;;;;4995964;28;20046;-77
2022/08/08 14:31:38;;;;;;;;;;;;;;;;;;4998502;28;20081;-79
2022/08/08 14:34:29;;;;;;;4.43;1.30;;;;;;;;;;4995911;28;19925;-77
2022/08/08 14:36:56;;;;;;;6.25;1.50;;;;;;;;;;5000034;28;20059;-80
2022/08/08 14:39:22;;;;;;;7.32;1.50;;;;;;;;;;5001286;28;20061;-80
2022/08/08 14:41:58;;;;;;;13.00;1.70;;;;;;;;;;4998910;28;20062;-79
2022/08/08 14:44:26;;;;;;;10.17;1.80;;;;;;;;;;5002978;28;20093;-80
2022/08/08 14:47:01;;;;;;;12.00;1.98;;;;;;;;;;5005035;28;20301;-79
2022/08/08 14:49:43;;;;;;;6.97;1.70;;;;;;;;;;5002296;28;20054;-79
2022/08/08 14:52:42;;;;;;;7.30;1.50;;;;;;;;;;4991697;28;20664;-78
2022/08/08 14:55:11;;;;;;;4.68;1.70;;;;;;;;;;5002422;28;20044;-79
2022/08/08 14:57:39;;;;;;;6.10;1.45;;;;;;;;;;5019135;28;20090;-79
2022/08/08 15:00:27;;;;;;;5.07;1.42;;;;;;;;;;5026289;28;20057;-78
2022/08/08 15:02:55;;;;;;;4.55;1.80;;;;;;;;;;4997304;28;20427;-79
2022/08/08 15:05:40;;;;;;;7.78;1.75;;;;;;;;;;4997307;28;20133;-79
2022/08/08 15:08:21;;;;;;;4.63;1.25;;;;;;;;;;4996110;28;20058;-79
2022/08/08 15:11:01;;;;;;;4.10;1.42;;;;;;;;;;4996038;28;20109;-78
2022/08/08 15:13:29;;;;;;;2.85;1.50;;;;;;;;;;4995979;28;20716;-79
2022/08/08 15:16:07;;;;;;;6.22;1.70;;;;;;;;;;4994685;28;20042;-79
2022/08/08 15:18:39;;;;;;;4.35;1.60;;;;;;;;;;4997062;28;20124;-79
2022/08/08 15:21:15;;;;;;;3.47;1.55;;;;;;;;;;4993785;28;20150;-79
2022/08/08 15:23:42;;;;;;;4.30;1.60;;;;;;;;;;4990348;28;20505;-79
2022/08/08 15:26:08;;;;;;;8.43;1.58;;;;;;;;;;4991717;28;20518;-79
2022/08/08 15:28:38;;;;;;;4.60;1.50;;;;;;;;;;4993487;28;20046;-77
2022/08/08 15:31:04;;;;;;;4.03;1.40;;;;;;;;;;4993040;28;20101;-78
2022/08/08 15:33:31;;;;;;;2.33;1.40;;;;;;;;;;4993991;28;20077;-79
2022/08/08 15:36:04;;;;;;;9.38;1.42;;;;;;;;;;4989005;28;20053;-78
2022/08/08 15:38:31;;;;;;;5.45;1.50;;;;;;;;;;4992916;28;20058;-79
2022/08/08 15:41:00;;;;;;;21.75;1.90;;;;;;;;;;4994147;28;20295;-79
2022/08/08 15:43:26;;;;;;;5.35;1.45;;;;;;;;;;4991043;28;20074;-79
2022/08/08 15:46:01;;;;;;;6.32;1.35;;;;;;;;;;4994238;28;20511;-79
2022/08/08 15:48:28;;;;;;;9.13;1.40;;;;;;;;;;4996218;28;20074;-78
2022/08/08 15:51:02;;;;;;;2.75;1.38;;;;;;;;;;4994852;28;20078;-79
2022/08/08 15:53:32;;;;;;;8.60;1.52;;;;;;;;;;4990225;28;20129;-79